Time;durP1;ratioP1;P1;durP2;ratioP2;P2;SDS_P1;SDS_P2;PMS_P1;PMS_P2;Temp;Humidity;BMP_temperature;BMP_pressure;BME280_temperature;BME280_humidity;BME280_pressure;Samples;Min_cycle;Max_cycle;Signal;HPM_P1;HPM_P2
2022/11/28 00:01:19;;;;;;;;;;;;;;;11.03;55.63;100468.97;4473752;32;35333;-69
2022/11/28 00:03:46;;;;;;;;;;;;;;;11.09;55.62;100467.72;4469182;31;33060;-66
2022/11/28 00:06:14;;;;;;;;;;;;;;;10.79;56.10;100473.25;4473265;32;34803;-66
2022/11/28 00:08:41;;;;;;;;;;;;;;;10.22;57.67;100476.78;4465616;31;33610;-65
2022/11/28 00:11:10;;;;;;;;;;;;;;;11.13;55.12;100464.72;4468349;32;34373;-66
2022/11/28 00:13:37;;;;;;;;;;;;;;;11.00;55.51;100477.22;4468645;32;34217;-68
2022/11/28 00:16:05;;;;;;;;;;;;;;;11.17;55.26;100470.75;4468723;32;36081;-68
2022/11/28 00:18:33;;;;;;;;;;;;;;;11.06;55.58;100466.09;4463670;32;33761;-70
2022/11/28 00:21:01;;;;;;;;;;;;;;;11.08;55.65;100474.06;4469154;32;32867;-68
2022/11/28 00:23:29;;;;;;;;;;;;;;;11.05;55.90;100471.56;4473701;32;34542;-68
2022/11/28 00:26:00;;;;;;;;;;;;;;;11.27;54.98;100465.62;4466092;32;35193;-67
2022/11/28 00:28:28;;;;;;;;;;;;;;;11.42;54.52;100462.81;4473438;32;34651;-68
2022/11/28 00:30:55;;;;;;;;;;;;;;;11.36;54.63;100457.87;4473428;32;32865;-68
2022/11/28 00:33:23;;;;;;;;;;;;;;;11.35;54.73;100466.84;4469619;32;34378;-68
2022/11/28 00:35:50;;;;;;;;;;;;;;;11.27;55.19;100462.97;4472614;32;34081;-71
2022/11/28 00:38:17;;;;;;;;;;;;;;;11.23;55.14;100461.44;4475439;32;34336;-68
2022/11/28 00:40:45;;;;;;;;;;;;;;;11.35;54.85;100461.50;4468069;32;33931;-68
2022/11/28 00:43:12;;;;;;;;;;;;;;;11.42;54.54;100468.16;4476110;32;33896;-70
2022/11/28 00:45:39;;;;;;;;;;;;;;;11.47;54.60;100464.34;4469463;32;34802;-68
2022/11/28 00:48:07;;;;;;;;;;;;;;;11.53;54.62;100464.78;4465966;32;33478;-67
2022/11/28 00:50:34;;;;;;;;;;;;;;;11.50;54.77;100469.50;4467594;32;33025;-67
2022/11/28 00:53:01;;;;;;;;;;;;;;;11.59;54.64;100464.37;4464734;32;34323;-67
2022/11/28 00:55:29;;;;;;;;;;;;;;;11.58;54.80;100469.81;4467903;32;34364;-67
2022/11/28 00:57:56;;;;;;;;;;;;;;;11.58;54.74;100475.19;4466085;32;33191;-68
2022/11/28 01:00:23;;;;;;;;;;;;;;;11.58;54.66;100473.34;4477074;32;35061;-67
2022/11/28 01:02:51;;;;;;;;;;;;;;;11.54;54.87;100469.19;4460889;32;35008;-68
2022/11/28 01:05:18;;;;;;;;;;;;;;;11.61;54.76;100473.16;4467137;32;35160;-68
2022/11/28 01:07:45;;;;;;;;;;;;;;;11.67;54.58;100474.56;4468716;32;33622;-69
2022/11/28 01:10:13;;;;;;;;;;;;;;;11.61;54.61;100465.09;4470980;32;33969;-69
2022/11/28 01:12:40;;;;;;;;;;;;;;;11.63;54.64;100470.38;4464642;32;34965;-69
2022/11/28 01:15:08;;;;;;;;;;;;;;;11.40;55.28;100459.38;4466087;32;34232;-69
2022/11/28 01:17:36;;;;;;;;;;;;;;;11.54;54.83;100460.28;4467445;32;35118;-69
2022/11/28 01:20:04;;;;;;;;;;;;;;;11.45;55.28;100451.03;4463214;32;33952;-67
2022/11/28 01:22:31;;;;;;;;;;;;;;;10.96;56.50;100460.50;4461093;32;34161;-66
2022/11/28 01:24:59;;;;;;;;;;;;;;;10.91;57.58;100453.69;4435414;32;916740;-67
2022/11/28 01:27:26;;;;;;;;;;;;;;;11.27;56.04;100452.25;4464633;32;32122;-66
2022/11/28 01:29:53;;;;;;;;;;;;;;;11.33;55.95;100457.19;4467238;32;34232;-65
2022/11/28 01:32:21;;;;;;;;;;;;;;;10.78;57.25;100460.81;4463881;32;35854;-66
2022/11/28 01:34:48;;;;;;;;;;;;;;;10.93;57.16;100455.31;4464668;32;34673;-66
2022/11/28 01:37:15;;;;;;;;;;;;;;;10.81;57.53;100453.44;4463298;32;33648;-66
2022/11/28 01:39:42;;;;;;;;;;;;;;;10.44;58.37;100444.25;4467820;32;34197;-66
2022/11/28 01:42:16;;;;;;;;;;;;;;;10.92;57.17;100448.25;4476318;32;34075;-69
2022/11/28 01:44:47;;;;;;;;;;;;;;;10.93;56.98;100444.63;4459845;32;33848;-66
2022/11/28 01:47:15;;;;;;;;;;;;;;;10.46;58.52;100440.50;4473322;32;32757;-66
2022/11/28 01:49:43;;;;;;;;;;;;;;;9.40;61.76;100434.50;4456004;32;39403;-66
2022/11/28 01:52:12;;;;;;;;;;;;;;;10.45;58.08;100428.06;4479168;32;34952;-68
2022/11/28 01:54:39;;;;;;;;;;;;;;;9.30;60.91;100432.38;4477288;32;35152;-65
2022/11/28 01:57:08;;;;;;;;;;;;;;;9.30;60.99;100439.53;4469641;32;34300;-66
2022/11/28 01:59:36;;;;;;;;;;;;;;;9.21;62.14;100429.38;4467508;32;33829;-66
2022/11/28 02:02:04;;;;;;;;;;;;;;;9.90;59.79;100420.78;4468837;32;33800;-66
2022/11/28 02:04:31;;;;;;;;;;;;;;;10.17;59.01;100417.34;4454770;32;34679;-67
2022/11/28 02:06:59;;;;;;;;;;;;;;;10.53;58.00;100416.00;4469320;32;33349;-69
2022/11/28 02:09:26;;;;;;;;;;;;;;;10.17;59.11;100418.19;4475536;32;33999;-66
2022/11/28 02:12:12;;;;;;;;;;;;;;;10.47;58.08;100402.06;4465185;32;35275;-68
2022/11/28 02:14:39;;;;;;;;;;;;;;;10.63;57.46;100409.13;4478523;32;35345;-66
2022/11/28 02:17:23;;;;;;;;;;;;;;;10.20;58.67;100406.47;4473012;32;32494;-67
2022/11/28 02:19:50;;;;;;;;;;;;;;;10.43;57.79;100408.59;4466772;32;32658;-69
2022/11/28 02:22:27;;;;;;;;;;;;;;;10.62;57.15;100404.72;4472508;32;34367;-66
2022/11/28 02:25:14;;;;;;;;;;;;;;;9.58;59.52;100406.69;4459439;32;34285;-66
2022/11/28 02:27:55;;;;;;;;;;;;;;;8.21;63.27;100402.94;4469024;32;32301;-67
2022/11/28 02:30:41;;;;;;;;;;;;;;;8.96;61.58;100401.44;4460077;32;33032;-66
2022/11/28 02:33:08;;;;;;;;;;;;;;;8.91;61.14;100403.50;4480770;32;33788;-65
2022/11/28 02:35:47;;;;;;;;;;;;;;;9.58;59.19;100398.69;4474487;32;35526;-68
2022/11/28 02:38:23;;;;;;;;;;;;;;;9.34;59.51;100403.66;4470024;32;31779;-66
2022/11/28 02:40:56;;;;;;;;;;;;;;;9.51;58.84;100402.69;4473428;32;35177;-68
2022/11/28 02:43:30;;;;;;;;;;;;;;;9.54;59.00;100399.81;4480919;32;35101;-70
2022/11/28 02:46:00;;;;;;;;;;;;;;;10.05;57.00;100392.25;4468870;32;34258;-69
2022/11/28 02:48:35;;;;;;;;;;;;;;;9.27;59.18;100395.16;4466789;32;34411;-70
2022/11/28 02:51:09;;;;;;;;;;;;;;;10.00;57.22;100388.97;4459774;32;33372;-66
2022/11/28 02:53:37;;;;;;;;;;;;;;;9.97;57.10;100387.34;4469362;32;34876;-66
2022/11/28 02:56:04;;;;;;;;;;;;;;;10.09;57.13;100383.06;4459002;32;34721;-66
2022/11/28 02:58:31;;;;;;;;;;;;;;;10.24;56.75;100381.22;4472251;32;33063;-67
2022/11/28 03:00:59;;;;;;;;;;;;;;;10.41;56.18;100378.38;4467077;32;32867;-66
2022/11/28 03:03:40;;;;;;;;;;;;;;;9.87;57.76;100383.53;4465684;32;33983;-68
2022/11/28 03:06:16;;;;;;;;;;;;;;;10.27;56.69;100381.06;4458542;32;33722;-69
2022/11/28 03:08:46;;;;;;;;;;;;;;;10.53;55.90;100378.53;4465634;32;33517;-70
2022/11/28 03:11:15;;;;;;;;;;;;;;;10.53;55.79;100375.84;4471870;32;33918;-68
2022/11/28 03:13:49;;;;;;;;;;;;;;;10.65;55.24;100367.88;4462874;32;34431;-68
2022/11/28 03:16:21;;;;;;;;;;;;;;;10.58;55.55;100368.41;4456823;32;34250;-70
2022/11/28 03:19:01;;;;;;;;;;;;;;;10.71;54.97;100362.13;4465905;32;33608;-68
2022/11/28 03:21:37;;;;;;;;;;;;;;;10.77;54.75;100362.72;4478420;32;33151;-69
2022/11/28 03:24:19;;;;;;;;;;;;;;;10.69;54.71;100358.72;4470335;32;32712;-68
2022/11/28 03:27:05;;;;;;;;;;;;;;;10.70;54.77;100357.75;4477945;32;34455;-70
2022/11/28 03:29:39;;;;;;;;;;;;;;;10.48;55.07;100357.44;4459808;32;33597;-70
2022/11/28 03:32:09;;;;;;;;;;;;;;;10.14;56.07;100356.88;4467971;32;34880;-68
2022/11/28 03:34:37;;;;;;;;;;;;;;;10.26;55.78;100353.44;4460268;32;33264;-70
2022/11/28 03:37:07;;;;;;;;;;;;;;;10.33;55.66;100348.56;4473678;32;34125;-67
2022/11/28 03:39:37;;;;;;;;;;;;;;;10.59;54.84;100335.31;4465090;32;34580;-67
2022/11/28 03:42:12;;;;;;;;;;;;;;;9.39;58.83;100325.91;4451161;32;33424;-67
2022/11/28 03:44:47;;;;;;;;;;;;;;;10.25;56.30;100327.63;4475635;32;34221;-67
2022/11/28 03:47:14;;;;;;;;;;;;;;;10.00;57.06;100324.78;4456478;32;34398;-67
2022/11/28 03:49:43;;;;;;;;;;;;;;;9.28;59.78;100326.59;4467887;32;33531;-67
2022/11/28 03:52:12;;;;;;;;;;;;;;;9.98;57.69;100318.69;4465466;32;34051;-69
2022/11/28 03:54:41;;;;;;;;;;;;;;;10.24;57.20;100322.37;4452190;32;33033;-69
2022/11/28 03:57:10;;;;;;;;;;;;;;;9.90;58.36;100316.50;4459833;32;34804;-67
2022/11/28 03:59:42;;;;;;;;;;;;;;;10.33;57.07;100316.47;4458172;32;35860;-71
2022/11/28 04:02:13;;;;;;;;;;;;;;;9.82;58.64;100316.09;4461618;32;35139;-68
2022/11/28 04:04:47;;;;;;;;;;;;;;;10.25;57.46;100302.69;4452757;32;33325;-66
2022/11/28 04:07:21;;;;;;;;;;;;;;;9.75;58.46;100307.59;4469302;32;34261;-67
2022/11/28 04:09:49;;;;;;;;;;;;;;;10.50;56.52;100307.34;4473383;32;33520;-70
2022/11/28 04:12:46;;;;;;;;;;;;;;;9.25;60.35;100300.91;4455457;32;32731;-70
2022/11/28 04:15:19;;;;;;;;;;;;;;;9.37;59.77;100299.28;4451101;32;34436;-67
2022/11/28 04:18:09;;;;;;;;;;;;;;;8.77;62.20;100308.22;4463893;32;34282;-69
2022/11/28 04:21:12;;;;;;;;;;;;;;;9.69;59.02;100299.13;4463091;32;32757;-68
2022/11/28 04:23:41;;;;;;;;;;;;;;;9.25;60.22;100295.56;4397873;32;33058;-68
2022/11/28 04:26:27;;;;;;;;;;;;;;;9.75;58.55;100298.75;4453333;32;35150;-70
2022/11/28 04:28:55;;;;;;;;;;;;;;;10.12;57.26;100296.41;4466760;32;34840;-68
2022/11/28 04:31:23;;;;;;;;;;;;;;;9.57;58.69;100300.75;4471327;32;34485;-70
2022/11/28 04:33:52;;;;;;;;;;;;;;;9.30;59.16;100300.63;4459524;32;32776;-67
2022/11/28 04:36:19;;;;;;;;;;;;;;;8.43;62.10;100303.94;4481445;32;33869;-66
2022/11/28 04:38:55;;;;;;;;;;;;;;;9.12;59.70;100291.03;4453386;32;33884;-66
2022/11/28 04:41:27;;;;;;;;;;;;;;;9.00;60.14;100301.50;4462343;32;31736;-66
2022/11/28 04:43:59;;;;;;;;;;;;;;;9.09;59.65;100297.44;4443842;32;34162;-68
2022/11/28 04:46:30;;;;;;;;;;;;;;;8.92;59.92;100300.25;4462767;32;34301;-66
2022/11/28 04:48:57;;;;;;;;;;;;;;;9.52;58.46;100298.34;4456929;32;34545;-68
2022/11/28 04:51:28;;;;;;;;;;;;;;;8.13;62.80;100299.38;4464958;32;33615;-66
2022/11/28 04:54:21;;;;;;;;;;;;;;;8.63;61.70;100300.12;4471507;32;33159;-67
2022/11/28 04:56:51;;;;;;;;;;;;;;;9.21;59.77;100291.37;4463505;32;33170;-67
2022/11/28 04:59:18;;;;;;;;;;;;;;;8.35;61.82;100295.50;4466562;32;34756;-67
2022/11/28 05:01:45;;;;;;;;;;;;;;;8.53;61.37;100290.94;4457685;32;34415;-67
2022/11/28 05:04:13;;;;;;;;;;;;;;;9.16;59.63;100289.91;4459671;32;35031;-67
2022/11/28 05:06:40;;;;;;;;;;;;;;;9.33;58.89;100290.59;4468329;32;35073;-67
2022/11/28 05:09:11;;;;;;;;;;;;;;;9.28;58.89;100294.53;4471023;32;34522;-67
2022/11/28 05:11:38;;;;;;;;;;;;;;;8.81;60.95;100291.06;4469331;32;35218;-68
2022/11/28 05:14:06;;;;;;;;;;;;;;;7.82;63.47;100299.34;4477454;32;34126;-67
2022/11/28 05:16:33;;;;;;;;;;;;;;;8.53;61.65;100304.28;4472896;32;34604;-66
2022/11/28 05:19:00;;;;;;;;;;;;;;;9.02;60.08;100296.06;4471327;32;34487;-66
2022/11/28 05:21:28;;;;;;;;;;;;;;;8.05;63.29;100298.06;4480840;32;34548;-68
2022/11/28 05:23:55;;;;;;;;;;;;;;;8.98;60.52;100298.06;4471722;32;35213;-66
2022/11/28 05:26:22;;;;;;;;;;;;;;;9.00;60.36;100301.50;4476599;32;33731;-66
2022/11/28 05:28:50;;;;;;;;;;;;;;;9.51;58.43;100302.00;4468621;32;34304;-66
2022/11/28 05:31:18;;;;;;;;;;;;;;;9.80;57.50;100307.34;4467419;32;33631;-66
2022/11/28 05:33:46;;;;;;;;;;;;;;;9.98;57.41;100306.19;4468728;32;34149;-66
2022/11/28 05:36:14;;;;;;;;;;;;;;;10.14;56.78;100315.88;4467326;32;35286;-68
2022/11/28 05:38:41;;;;;;;;;;;;;;;10.12;56.67;100315.16;4467869;32;35032;-67
2022/11/28 05:41:09;;;;;;;;;;;;;;;10.25;56.08;100316.94;4468440;32;32278;-66
2022/11/28 05:43:36;;;;;;;;;;;;;;;9.99;56.87;100320.41;4459063;32;32958;-67
2022/11/28 05:46:05;;;;;;;;;;;;;;;10.01;56.63;100322.00;4470624;32;34134;-67
2022/11/28 05:48:32;;;;;;;;;;;;;;;10.08;56.76;100314.50;4471602;32;33850;-68
2022/11/28 05:51:02;;;;;;;;;;;;;;;9.74;57.88;100315.75;4480841;32;33060;-67
2022/11/28 05:53:29;;;;;;;;;;;;;;;9.82;57.72;100323.28;4479716;32;35193;-67
2022/11/28 05:55:57;;;;;;;;;;;;;;;9.43;58.96;100320.28;4469308;32;34183;-67
2022/11/28 05:58:24;;;;;;;;;;;;;;;9.77;57.79;100315.56;4467794;32;35059;-65
2022/11/28 06:00:51;;;;;;;;;;;;;;;9.71;58.20;100319.47;4468587;32;34956;-67
2022/11/28 06:03:19;;;;;;;;;;;;;;;10.00;57.47;100314.97;4464688;32;34113;-68
2022/11/28 06:05:47;;;;;;;;;;;;;;;9.57;57.98;100311.44;4468575;32;33255;-66
2022/11/28 06:08:14;;;;;;;;;;;;;;;8.70;60.60;100324.66;4469475;32;33720;-67
2022/11/28 06:10:42;;;;;;;;;;;;;;;9.46;58.81;100314.75;4467352;32;34299;-67
2022/11/28 06:13:09;;;;;;;;;;;;;;;8.53;60.34;100331.81;4467580;32;32296;-67
2022/11/28 06:15:36;;;;;;;;;;;;;;;9.29;58.98;100326.47;4475508;32;34344;-67
2022/11/28 06:18:05;;;;;;;;;;;;;;;9.52;58.60;100333.09;4468639;32;34491;-65
2022/11/28 06:20:33;;;;;;;;;;;;;;;8.85;59.72;100326.44;4458342;32;33695;-66
2022/11/28 06:23:00;;;;;;;;;;;;;;;9.01;59.68;100332.59;4481561;32;33963;-68
2022/11/28 06:25:28;;;;;;;;;;;;;;;8.29;61.37;100328.72;4466695;32;35633;-66
2022/11/28 06:27:55;;;;;;;;;;;;;;;8.92;59.96;100330.47;4473211;32;34794;-65
2022/11/28 06:30:22;;;;;;;;;;;;;;;8.10;61.54;100331.53;4480113;32;32348;-66
2022/11/28 06:32:50;;;;;;;;;;;;;;;8.45;61.27;100325.22;4472061;32;33644;-66
2022/11/28 06:35:17;;;;;;;;;;;;;;;9.16;59.43;100317.47;4466951;32;34119;-66
2022/11/28 06:37:44;;;;;;;;;;;;;;;8.85;59.94;100326.44;4472281;32;35031;-65
2022/11/28 06:40:12;;;;;;;;;;;;;;;9.23;59.06;100324.16;4468447;32;33344;-67
2022/11/28 06:42:39;;;;;;;;;;;;;;;9.33;58.66;100325.31;4466920;32;35154;-67
2022/11/28 06:45:08;;;;;;;;;;;;;;;7.29;65.29;100330.56;4467760;32;34227;-65
2022/11/28 06:47:35;;;;;;;;;;;;;;;8.74;60.99;100329.75;4467381;32;33017;-64
2022/11/28 06:50:02;;;;;;;;;;;;;;;8.71;60.78;100327.25;4475785;32;33642;-68
2022/11/28 06:52:30;;;;;;;;;;;;;;;8.86;59.70;100323.69;4466906;32;34008;-67
2022/11/28 06:54:57;;;;;;;;;;;;;;;8.97;60.26;100327.53;4467559;32;34344;-67
2022/11/28 06:57:24;;;;;;;;;;;;;;;9.47;58.54;100323.62;4478002;32;35257;-68
2022/11/28 06:59:52;;;;;;;;;;;;;;;9.57;58.23;100333.69;4472514;32;33649;-71
2022/11/28 07:02:19;;;;;;;;;;;;;;;9.03;59.88;100332.50;4474999;32;34403;-68
2022/11/28 07:04:46;;;;;;;;;;;;;;;9.07;60.08;100326.88;4468959;32;32496;-68
2022/11/28 07:07:14;;;;;;;;;;;;;;;9.27;59.02;100324.84;4483368;32;34507;-68
2022/11/28 07:09:43;;;;;;;;;;;;;;;8.38;61.28;100340.72;4476479;32;33706;-69
2022/11/28 07:12:11;;;;;;;;;;;;;;;8.97;59.93;100333.72;4469104;32;34184;-68
2022/11/28 07:14:38;;;;;;;;;;;;;;;9.52;58.16;100325.06;4466469;32;34221;-68
2022/11/28 07:17:05;;;;;;;;;;;;;;;9.22;58.84;100322.47;4467869;32;33075;-68
2022/11/28 07:19:33;;;;;;;;;;;;;;;9.91;57.45;100323.56;4467864;32;34369;-66
2022/11/28 07:22:00;;;;;;;;;;;;;;;8.95;60.60;100334.75;4469032;32;35121;-67
2022/11/28 07:24:29;;;;;;;;;;;;;;;8.17;61.92;100332.91;4467156;32;34325;-66
2022/11/28 07:26:56;;;;;;;;;;;;;;;8.45;60.31;100339.41;4467377;32;32991;-65
2022/11/28 07:29:23;;;;;;;;;;;;;;;9.04;59.54;100339.56;4474877;32;32683;-68
2022/11/28 07:31:51;;;;;;;;;;;;;;;9.56;58.15;100336.44;4466002;32;35381;-66
2022/11/28 07:34:18;;;;;;;;;;;;;;;8.79;60.08;100335.66;4468751;32;34130;-65
2022/11/28 07:36:45;;;;;;;;;;;;;;;8.24;61.70;100332.56;4468510;32;32817;-67
2022/11/28 07:39:16;;;;;;;;;;;;;;;8.52;61.54;100334.59;4482874;32;33500;-67
2022/11/28 07:41:43;;;;;;;;;;;;;;;8.44;61.61;100329.66;4469377;32;34157;-65
2022/11/28 07:44:11;;;;;;;;;;;;;;;8.89;60.60;100327.97;4479266;32;32612;-66
2022/11/28 07:46:39;;;;;;;;;;;;;;;8.00;62.69;100330.31;4471101;32;34894;-66
2022/11/28 07:49:06;;;;;;;;;;;;;;;7.67;62.94;100325.88;4482251;32;33517;-65
2022/11/28 07:51:33;;;;;;;;;;;;;;;6.76;66.51;100319.03;4469103;32;32959;-66
2022/11/28 07:54:02;;;;;;;;;;;;;;;7.38;64.86;100306.13;4466891;32;35256;-65
2022/11/28 07:56:30;;;;;;;;;;;;;;;6.69;66.97;100312.28;4467606;32;34441;-65
2022/11/28 07:59:18;;;;;;;;;;;;;;;6.23;68.59;100306.56;4462702;32;33476;-68
2022/11/28 08:01:45;;;;;;;;;;;;;;;7.26;64.95;100311.22;4463762;32;32799;-65
2022/11/28 08:04:12;;;;;;;;;;;;;;;7.14;65.00;100312.72;4466393;32;34299;-66
2022/11/28 08:06:40;;;;;;;;;;;;;;;7.06;65.77;100307.75;4469924;32;35111;-65
2022/11/28 08:09:08;;;;;;;;;;;;;;;6.55;66.52;100312.13;4466610;32;31854;-67
2022/11/28 08:11:35;;;;;;;;;;;;;;;6.51;67.29;100322.03;4472857;32;34989;-67
2022/11/28 08:14:03;;;;;;;;;;;;;;;6.63;67.00;100315.25;4466684;32;34257;-63
2022/11/28 08:16:30;;;;;;;;;;;;;;;6.59;65.67;100315.50;4468120;32;34105;-67
2022/11/28 08:19:01;;;;;;;;;;;;;;;7.06;64.29;100320.22;4473662;32;33516;-64
2022/11/28 08:21:29;;;;;;;;;;;;;;;7.40;63.16;100322.00;4469069;32;34017;-65
2022/11/28 08:23:58;;;;;;;;;;;;;;;5.98;67.16;100325.47;4465909;32;34362;-67
2022/11/28 08:26:25;;;;;;;;;;;;;;;7.12;64.00;100322.56;4472851;32;34475;-64
2022/11/28 08:28:57;;;;;;;;;;;;;;;6.87;65.52;100325.59;4471506;32;33783;-66
2022/11/28 08:31:25;;;;;;;;;;;;;;;6.16;66.57;100333.50;4466876;32;35229;-64
2022/11/28 08:33:54;;;;;;;;;;;;;;;6.45;64.99;100327.69;4469655;32;33234;-64
2022/11/28 08:36:21;;;;;;;;;;;;;;;5.96;66.23;100331.78;4464408;32;34011;-67
2022/11/28 08:38:49;;;;;;;;;;;;;;;6.71;65.09;100338.84;4475772;32;33602;-65
2022/11/28 08:41:36;;;;;;;;;;;;;;;6.85;64.66;100344.31;4466643;32;38119;-65
2022/11/28 08:44:03;;;;;;;;;;;;;;;6.30;65.58;100341.69;4464328;32;34599;-66
2022/11/28 08:46:31;;;;;;;;;;;;;;;6.20;65.59;100341.28;4466184;32;35077;-65
2022/11/28 08:49:00;;;;;;;;;;;;;;;6.25;65.44;100336.59;4465888;32;32312;-68
2022/11/28 08:51:30;;;;;;;;;;;;;;;5.72;66.87;100339.06;4466315;32;35115;-64
2022/11/28 08:53:58;;;;;;;;;;;;;;;6.11;67.00;100336.38;4473216;32;33845;-67
2022/11/28 08:56:26;;;;;;;;;;;;;;;6.18;64.50;100332.50;4473042;32;33262;-65
2022/11/28 08:58:53;;;;;;;;;;;;;;;6.46;64.46;100333.84;4464437;32;34371;-64
2022/11/28 09:01:22;;;;;;;;;;;;;;;6.06;64.53;100330.41;4465983;32;32400;-64
2022/11/28 09:03:49;;;;;;;;;;;;;;;6.54;64.65;100329.84;4465406;32;34152;-65
2022/11/28 09:06:17;;;;;;;;;;;;;;;6.83;63.10;100324.03;4468594;32;34374;-64
2022/11/28 09:08:44;;;;;;;;;;;;;;;5.38;67.10;100325.47;4465150;32;33523;-65
2022/11/28 09:11:13;;;;;;;;;;;;;;;6.34;64.94;100329.13;4467864;32;34923;-65
2022/11/28 09:13:40;;;;;;;;;;;;;;;6.70;62.38;100326.44;4468016;32;32803;-65
2022/11/28 09:16:08;;;;;;;;;;;;;;;7.47;61.18;100318.06;4466707;32;34629;-65
2022/11/28 09:18:35;;;;;;;;;;;;;;;7.08;61.39;100318.34;4467394;32;34965;-70
2022/11/28 09:21:03;;;;;;;;;;;;;;;6.36;64.34;100325.47;4471474;32;34674;-65
2022/11/28 09:23:31;;;;;;;;;;;;;;;6.51;62.68;100318.50;4470442;32;34367;-65
2022/11/28 09:25:58;;;;;;;;;;;;;;;7.64;60.31;100318.06;4472947;32;35188;-64
2022/11/28 09:28:27;;;;;;;;;;;;;;;6.25;63.43;100317.12;4473737;32;33265;-66
2022/11/28 09:30:58;;;;;;;;;;;;;;;6.89;62.67;100318.41;4467402;32;33973;-65
2022/11/28 09:33:25;;;;;;;;;;;;;;;6.00;63.88;100322.72;4467267;32;35468;-65
2022/11/28 09:35:54;;;;;;;;;;;;;;;6.29;63.49;100319.56;4470960;32;34496;-65
2022/11/28 09:38:21;;;;;;;;;;;;;;;6.21;63.20;100316.41;4481166;32;33962;-65
2022/11/28 09:40:49;;;;;;;;;;;;;;;6.95;61.34;100313.66;4478137;32;34283;-65
2022/11/28 09:43:22;;;;;;;;;;;;;;;7.11;61.39;100310.22;4460032;32;35375;-65
2022/11/28 09:45:50;;;;;;;;;;;;;;;7.31;60.84;100303.84;4453392;32;35455;-66
2022/11/28 09:48:25;;;;;;;;;;;;;;;6.68;62.02;100294.63;4465711;32;34588;-64
2022/11/28 09:50:54;;;;;;;;;;;;;;;6.02;64.56;100288.97;4463806;32;32841;-69
2022/11/28 09:53:41;;;;;;;;;;;;;;;6.75;62.24;100288.06;4465865;32;35063;-65
2022/11/28 09:56:13;;;;;;;;;;;;;;;7.20;60.22;100280.44;4474859;32;33071;-65
2022/11/28 09:58:50;;;;;;;;;;;;;;;7.29;59.73;100271.97;4468163;32;33512;-65
2022/11/28 10:01:24;;;;;;;;;;;;;;;6.93;61.08;100278.28;4480190;32;34210;-65
2022/11/28 10:04:11;;;;;;;;;;;;;;;6.86;60.69;100270.66;4464993;32;34340;-65
2022/11/28 10:06:44;;;;;;;;;;;;;;;7.18;59.51;100277.00;4469596;32;33263;-65
2022/11/28 10:09:15;;;;;;;;;;;;;;;6.30;62.97;100264.59;4479466;32;32471;-64
2022/11/28 10:11:42;;;;;;;;;;;;;;;7.60;58.88;100271.19;4469521;32;35424;-65
2022/11/28 10:14:09;;;;;;;;;;;;;;;7.10;60.00;100276.56;4483734;32;33852;-66
2022/11/28 10:16:45;;;;;;;;;;;;;;;6.53;60.55;100266.97;4480710;32;34679;-66
2022/11/28 10:19:14;;;;;;;;;;;;;;;6.42;61.56;100271.09;4456052;32;34672;-66
2022/11/28 10:22:01;;;;;;;;;;;;;;;7.10;59.67;100265.91;4461645;32;35241;-65
2022/11/28 10:24:40;;;;;;;;;;;;;;;6.81;60.21;100267.41;4466157;32;32992;-66
2022/11/28 10:27:08;;;;;;;;;;;;;;;6.55;60.41;100272.25;4455917;32;34241;-66
2022/11/28 10:29:47;;;;;;;;;;;;;;;7.20;58.79;100264.47;4461595;32;34580;-67
2022/11/28 10:32:16;;;;;;;;;;;;;;;6.08;62.37;100264.78;4472952;32;34285;-65
2022/11/28 10:34:49;;;;;;;;;;;;;;;6.71;59.85;100253.72;4476930;32;34066;-65
2022/11/28 10:37:18;;;;;;;;;;;;;;;7.40;58.05;100250.09;4469361;32;33762;-65
2022/11/28 10:39:45;;;;;;;;;;;;;;;6.00;60.80;100262.50;4462173;32;34430;-65
2022/11/28 10:42:31;;;;;;;;;;;;;;;5.87;60.96;100248.00;4477061;32;34130;-66
2022/11/28 10:45:02;;;;;;;;;;;;;;;5.71;61.41;100249.66;4480837;32;35103;-67
2022/11/28 10:47:48;;;;;;;;;;;;;;;6.29;60.42;100242.47;4465714;32;34106;-66
2022/11/28 10:50:20;;;;;;;;;;;;;;;7.22;57.41;100242.16;4472129;32;33364;-66
2022/11/28 10:52:50;;;;;;;;;;;;;;;7.65;56.51;100241.66;4463412;32;33454;-66
2022/11/28 10:55:24;;;;;;;;;;;;;;;7.89;54.76;100231.41;4456121;32;33717;-65
2022/11/28 10:58:01;;;;;;;;;;;;;;;6.74;57.19;100222.50;4462904;32;35532;-67
2022/11/28 11:00:28;;;;;;;;;;;;;;;6.88;57.41;100220.91;4467696;32;34794;-68
2022/11/28 11:02:56;;;;;;;;;;;;;;;6.69;57.89;100219.19;4464342;32;34228;-66
2022/11/28 11:05:25;;;;;;;;;;;;;;;7.14;56.88;100220.41;4467813;32;34181;-67
2022/11/28 11:07:54;;;;;;;;;;;;;;;7.11;56.68;100220.56;4470304;32;34249;-65
2022/11/28 11:10:22;;;;;;;;;;;;;;;7.30;56.70;100214.25;4471524;32;34347;-66
2022/11/28 11:12:51;;;;;;;;;;;;;;;6.70;57.63;100210.25;4464540;32;32404;-65
2022/11/28 11:15:19;;;;;;;;;;;;;;;7.67;56.72;100213.97;4473125;32;35567;-65
2022/11/28 11:17:46;;;;;;;;;;;;;;;7.83;54.72;100223.75;4465253;32;35451;-65
2022/11/28 11:20:33;;;;;;;;;;;;;;;6.41;59.38;100221.53;4470350;32;32144;-67
2022/11/28 11:23:09;;;;;;;;;;;;;;;6.87;59.16;100216.50;4469833;32;34031;-65
2022/11/28 11:25:36;;;;;;;;;;;;;;;6.60;59.04;100217.00;4468943;32;34306;-66
2022/11/28 11:28:04;;;;;;;;;;;;;;;7.40;56.66;100221.66;4460851;32;33049;-65
2022/11/28 11:30:37;;;;;;;;;;;;;;;7.52;56.08;100214.81;4467042;31;31923;-66
2022/11/28 11:33:06;;;;;;;;;;;;;;;6.79;58.51;100216.06;4466765;32;34765;-65
2022/11/28 11:35:33;;;;;;;;;;;;;;;7.60;56.85;100215.25;4471327;32;34167;-64
2022/11/28 11:38:16;;;;;;;;;;;;;;;7.54;56.52;100215.56;4462519;32;34188;-65
2022/11/28 11:40:44;;;;;;;;;;;;;;;6.43;58.36;100209.03;4472935;32;34514;-65
2022/11/28 11:43:23;;;;;;;;;;;;;;;6.30;58.67;100201.66;4460618;32;34052;-67
2022/11/28 11:46:20;;;;;;;;;;;;;;;7.32;57.58;100207.03;4469236;32;35375;-65
2022/11/28 11:48:49;;;;;;;;;;;;;;;8.12;55.56;100209.66;4470015;32;34970;-68
2022/11/28 11:51:26;;;;;;;;;;;;;;;7.83;55.96;100210.44;4469776;32;33755;-66
2022/11/28 11:54:04;;;;;;;;;;;;;;;7.55;56.52;100203.13;4468941;32;34673;-64
2022/11/28 11:56:35;;;;;;;;;;;;;;;7.25;57.91;100209.16;4470852;32;35195;-64
2022/11/28 11:59:04;;;;;;;;;;;;;;;8.23;55.99;100194.84;4464992;32;34192;-64
2022/11/28 12:01:31;;;;;;;;;;;;;;;8.50;55.32;100190.59;4454616;32;34644;-65
2022/11/28 12:04:05;;;;;;;;;;;;;;;7.98;57.11;100190.91;4473353;31;35465;-64
2022/11/28 12:06:52;;;;;;;;;;;;;;;8.86;54.48;100181.34;4454491;32;32841;-64
2022/11/28 12:09:25;;;;;;;;;;;;;;;8.57;54.33;100183.97;4469348;32;33906;-68
2022/11/28 12:12:05;;;;;;;;;;;;;;;7.85;55.99;100187.25;4477714;31;31941;-64
2022/11/28 12:14:33;;;;;;;;;;;;;;;8.37;54.96;100178.91;4463085;32;31876;-65
2022/11/28 12:17:07;;;;;;;;;;;;;;;7.94;56.63;100181.38;4455324;32;35528;-64
2022/11/28 12:20:27;;;;;;;;;;;;;;;7.91;56.51;100181.56;4469188;32;34300;-64
2022/11/28 12:23:09;;;;;;;;;;;;;;;7.31;56.93;100171.56;4434778;32;32288;-65
2022/11/28 12:25:52;;;;;;;;;;;;;;;7.74;56.16;100177.19;4473895;32;34156;-65
2022/11/28 12:28:39;;;;;;;;;;;;;;;8.73;52.59;100167.00;4464956;32;33536;-65
2022/11/28 12:31:19;;;;;;;;;;;;;;;6.51;58.22;100175.75;4433366;32;35352;-64
2022/11/28 12:33:51;;;;;;;;;;;;;;;7.34;57.06;100170.53;4457648;32;31789;-65
2022/11/28 12:36:22;;;;;;;;;;;;;;;7.82;56.20;100160.75;4481341;32;34601;-65
2022/11/28 12:38:56;;;;;;;;;;;;;;;7.78;56.40;100160.06;4460838;32;34840;-67
2022/11/28 12:41:32;;;;;;;;;;;;;;;6.47;58.22;100168.03;4469603;32;32784;-65
2022/11/28 12:44:02;;;;;;;;;;;;;;;7.74;55.87;100162.97;4468114;32;33255;-68
2022/11/28 12:46:50;;;;;;;;;;;;;;;7.94;54.86;100154.72;4470013;32;33090;-66
2022/11/28 12:49:17;;;;;;;;;;;;;;;8.23;54.76;100157.53;4471643;32;34418;-65
2022/11/28 12:51:49;;;;;;;;;;;;;;;7.99;55.51;100157.97;4472637;32;33656;-66
2022/11/28 12:54:16;;;;;;;;;;;;;;;7.51;56.66;100164.28;4461922;32;34749;-66
2022/11/28 12:56:53;;;;;;;;;;;;;;;8.60;53.71;100149.09;4473141;32;34934;-67
2022/11/28 12:59:36;;;;;;;;;;;;;;;7.30;55.95;100147.69;4466843;32;32747;-65
2022/11/28 13:02:14;;;;;;;;;;;;;;;7.55;56.56;100152.53;4477244;32;34949;-65